• Join FlightAware (Why Join?)
  • Login
  • US Flag 
08:07AM EDT


 

Airport Tracker/Info


-or-


 

Live Flight TrackerFlight Track Log ✈ LOF3359 ✈ 13-Apr-2013 ✈ KDAY - KIAD

Flight Track Log - Related Links

Times and Time Zones

All times are in EDT time to prevent confusion due to time zone crossing. See the LOF3359 flight status page for this flight to view local times or setup timezone preferences in your user account.

Time Position Orientation Groundspeed Altitude Reporting Facility
EDT Latitude Longitude Course Direction KTS MPH feet Rate Location/Type
02:50PM 39.8989 -84.2389 79° East 148 170 1,600  Level Indianapolis Center
02:51PM 39.8836 -84.2478 204° Southwest 153 176 2,600 2,340 Climbing Indianapolis Center
02:51PM 39.8675 -84.2447 172° South 175 201 3,400 1,980 Climbing Indianapolis Center
02:52PM 39.8175 -84.1997 145° Southeast 229 264 5,400 2,100 Climbing Indianapolis Center
02:53PM 39.9575 -83.8085 83° East  Level FlightAware Approximate
02:53PM 39.8369 -84.0972 76° East 280 322 7,800  Level Indianapolis Center
02:54PM 39.9738 -83.6704 79° East  Level FlightAware Approximate
02:54PM 39.8603 -83.9828 75° East 307 353 10,000  Level Indianapolis Center
02:55PM 39.9949 -83.5333 79° East  Level FlightAware Approximate
02:55PM 39.8878 -83.8586 74° East 340 391 11,900  Level Indianapolis Center
02:56PM 39.9172 -83.7225 74° East 381 438 13,700 1,740 Climbing Indianapolis Center
02:57PM 39.9464 -83.5825 75° East 391 450 15,500 1,680 Climbing Indianapolis Center
02:58PM 39.9772 -83.4361 75° East 405 466 17,200 1,740 Climbing Indianapolis Center
02:59PM 40.0075 -83.2886 75° East 412 474 19,200 1,740 Climbing Indianapolis Center
03:00PM 40.0383 -83.1411 75° East 416 479 20,800 1,500 Climbing Indianapolis Center
03:01PM 40.0703 -82.9861 75° East 434 499 22,300 1,500 Climbing Indianapolis Center
03:02PM 40.1036 -82.8269 75° East 447 514 23,900 1,500 Climbing Indianapolis Center
03:03PM 40.1369 -82.6614 75° East 463 533 25,400 1,380 Climbing Indianapolis Center
03:04PM 40.1436 -82.4911 87° East 473 544 26,800 720 Climbing Indianapolis Center
03:05PM 40.1297 -82.2794 95° East 494 568 27,000 60 Climbing Indianapolis Center
03:06PM 40.1153 -82.0869 96° East 522 601 27,000  Level Indianapolis Center
03:07PM 40.1011 -81.8861 95° East 545 627 27,000  Level Indianapolis Center
03:08PM 40.0847 -81.6731 96° East 556 640 27,000  Level Indianapolis Center
03:09PM 40.0686 -81.4678 96° East 562 647 27,000  Level Indianapolis Center
03:10PM 40.0522 -81.2631 96° East 564 649 27,000  Level Indianapolis Center
03:11PM 39.9992 -81.0753 110° East 550 633 27,000  Level Indianapolis Center
03:13PM 39.9331 -80.8886 115° Southeast 537 618 27,000  Level Indianapolis Center
03:14PM 39.8700 -80.7175 116° Southeast 525 604 27,000  Level Indianapolis Center
03:15PM 39.8083 -80.5469 115° Southeast 518 596 27,000  Level Indianapolis Center
03:15PM 39.7894 -80.4847 112° Southeast 522 601 27,000  Level Washington Center
03:16PM 39.7353 -80.3300 114° Southeast 516 594 27,000  Level Washington Center
03:17PM 39.6750 -80.1642 115° Southeast 516 594 27,000  Level Washington Center
03:18PM 39.6122 -80.0014 117° Southeast 516 594 27,000  Level Washington Center
03:19PM 39.5578 -79.8336 113° Southeast 510 587 27,000  Level Washington Center
03:20PM 39.5244 -79.6514 103° East 510 587 27,000  Level Washington Center
03:21PM 39.4908 -79.4722 104° East 510 587 27,000 -480 Level Washington Center
03:22PM 39.4589 -79.2903 103° East 510 587 26,100 -1,560 Descending Washington Center
03:23PM 39.4150 -79.0892 106° East 522 601 23,900 -2,400 Descending Washington Center
03:24PM 39.3861 -78.9267 103° East 495 570 21,400 -2,820 Descending Washington Center
03:25PM 39.3572 -78.7697 103° East 464 534 18,300 -2,880 Descending Washington Center
03:26PM 39.3317 -78.6236 103° East 435 501 15,800 -2,640 Descending Washington Center
03:27PM 39.3061 -78.4803 103° East 421 484 13,100 -2,400 Descending Washington Center
03:28PM 39.2758 -78.3506 107° East 395 455 11,000 -1,080 Descending Washington Center
03:29PM 39.2219 -78.2467 124° Southeast 362 417 11,000 -780 Level Washington Center
03:30PM 39.1717 -78.1511 124° Southeast 341 392 9,500 -1,080 Descending Washington Center
03:31PM 39.0956 -78.1056 155° Southeast 296 341 8,900 -300 Descending Washington Center
03:32PM 39.0192 -78.0711 161° South 291 335 9,000 -300 Climbing Washington Center
03:33PM 38.9622 -78.0022 137° Southeast 283 326 8,400 -780 Descending Washington Center
03:34PM 38.9644 -77.8956 88° East 258 297 7,500 -720 Descending Washington Center
03:35PM 38.9661 -77.8022 89° East 253 291 7,000 -480 Descending Washington Center
03:36PM 38.9614 -77.7167 94° East 259 298 6,600 -600 Descending Washington Center
03:37PM 38.9672 -77.6206 86° East 251 289 5,900 -420 Descending Washington Center
03:38PM 39.0000 -77.5833 41° Northeast 239 275 5,900  Level Potomac TRACON
03:39PM 39.0667 -77.5667 11° North 229 264 6,000 -360 Climbing Potomac TRACON
03:40PM 39.1167 -77.5667 360° North 225 259 5,300 -540 Descending Potomac TRACON
03:41PM 39.2000 -77.5833 351° North 221 254 5,000 -180 Descending Potomac TRACON
03:42PM 39.2333 -77.5333 49° Northeast 255 293 5,000 -300 Level Potomac TRACON
03:43PM 39.1833 -77.4833 142° Southeast 212 244 4,500 -660 Descending Potomac TRACON
03:44PM 39.1333 -77.4500 153° Southeast 206 237 3,700 -1,080 Descending Potomac TRACON
03:45PM 39.0667 -77.4667 191° South 199 229 2,400 -1,320 Descending Potomac TRACON